Time;durP1;ratioP1;P1;durP2;ratioP2;P2;SDS_P1;SDS_P2;PMS_P1;PMS_P2;Temp;Humidity;BMP_temperature;BMP_pressure;BME280_temperature;BME280_humidity;BME280_pressure;Samples;Min_cycle;Max_cycle;Signal;HPM_P1;HPM_P2
2021/01/22 00:00:26;;;;;;;;;;;;;;;5.07;73.25;98768.25;119990;1151;22930;-63
2021/01/22 00:03:07;;;;;;;18.90;5.20;;;;;;;5.12;73.16;98764.06;120023;1151;21566;-62
2021/01/22 00:05:37;;;;;;;18.82;5.70;;;;;;;5.13;73.33;98754.53;119984;1150;22929;-63
2021/01/22 00:08:08;;;;;;;27.13;7.17;;;;;;;5.11;73.13;98763.29;120180;1151;22954;-62
2021/01/22 00:10:38;;;;;;;28.80;9.83;;;;;;;5.07;73.16;98762.72;120075;1151;22930;-62
2021/01/22 00:13:09;;;;;;;24.07;8.20;;;;;;;5.00;73.12;98768.65;120318;1149;22940;-62
2021/01/22 00:15:39;;;;;;;31.03;9.10;;;;;;;4.91;73.61;98749.38;120177;1149;23080;-62
2021/01/22 00:18:10;;;;;;;27.37;8.47;;;;;;;4.85;73.41;98749.29;119962;1150;22986;-62
2021/01/22 00:20:41;;;;;;;27.50;9.25;;;;;;;4.77;73.73;98745.38;120167;1149;22918;-62
2021/01/22 00:23:11;;;;;;;28.73;8.43;;;;;;;4.74;73.84;98740.78;120132;1151;23018;-62
2021/01/22 00:25:42;;;;;;;27.93;9.43;;;;;;;4.71;73.92;98743.75;119986;1151;22982;-63
2021/01/22 00:28:11;;;;;;;;;;;;;;;4.68;73.98;98741.92;120051;1150;26539;-62
2021/01/22 00:30:41;;;;;;;33.50;10.47;;;;;;;4.63;74.22;98731.55;120024;1151;21569;-62
2021/01/22 00:33:12;;;;;;;29.25;8.98;;;;;;;4.59;73.93;98728.20;120176;1150;22990;-62
2021/01/22 00:35:41;;;;;;;;;;;;;;;4.56;73.93;98734.66;120165;1149;27319;-62
2021/01/22 00:38:11;;;;;;;32.37;11.23;;;;;;;4.51;74.01;98722.27;120120;1150;21771;-62
2021/01/22 00:40:41;;;;;;;30.73;10.73;;;;;;;4.49;74.32;98718.48;120101;1149;22950;-62
2021/01/22 00:43:12;;;;;;;31.15;11.45;;;;;;;4.45;74.26;98707.59;120032;1150;22923;-62
2021/01/22 00:45:42;;;;;;;;;;;;;;;4.42;74.40;98705.02;120236;1151;22920;-63
2021/01/22 00:48:12;;;;;;;27.87;10.10;;;;;;;4.41;74.34;98695.19;120092;1150;23185;-62
2021/01/22 00:50:42;;;;;;;29.37;9.53;;;;;;;4.39;74.48;98692.14;120010;1151;22923;-62
2021/01/22 00:53:13;;;;;;;26.50;9.03;;;;;;;4.39;74.59;98681.09;119985;1151;22963;-63
2021/01/22 00:55:45;;;;;;;28.93;9.77;;;;;;;4.38;74.61;98674.05;120012;1150;23056;-62
2021/01/22 00:58:16;;;;;;;28.77;9.00;;;;;;;4.35;74.46;98673.00;120136;1151;23025;-61
2021/01/22 01:00:45;;;;;;;28.43;9.10;;;;;;;4.34;74.77;98670.71;120235;1149;22921;-63
2021/01/22 01:03:16;;;;;;;32.55;9.75;;;;;;;4.34;74.59;98663.20;119983;1150;22948;-62
2021/01/22 01:05:46;;;;;;;29.97;9.13;;;;;;;4.32;74.63;98662.91;120076;1150;22916;-63
2021/01/22 01:08:16;;;;;;;28.38;7.67;;;;;;;4.32;75.10;98664.91;120120;1150;22910;-62
2021/01/22 01:10:46;;;;;;;28.42;9.40;;;;;;;4.29;74.69;98663.84;120002;1150;26742;-62
2021/01/22 01:13:16;;;;;;;25.57;8.38;;;;;;;4.26;74.67;98652.98;119918;1150;22960;-62
2021/01/22 01:15:46;;;;;;;27.20;8.28;;;;;;;4.24;75.08;98639.66;119898;1150;22974;-62
2021/01/22 01:18:16;;;;;;;26.12;7.72;;;;;;;4.22;74.67;98642.11;119990;1151;24566;-62
2021/01/22 01:20:46;;;;;;;25.20;7.97;;;;;;;4.21;75.16;98640.59;119979;1150;22934;-63
2021/01/22 01:23:16;;;;;;;26.60;8.48;;;;;;;4.21;75.20;98628.78;119968;1150;22942;-62
2021/01/22 01:25:46;;;;;;;25.07;7.73;;;;;;;4.18;75.27;98635.27;120146;1149;26385;-62
2021/01/22 01:28:17;;;;;;;20.77;6.47;;;;;;;4.17;75.25;98620.69;120148;1151;22919;-62
2021/01/22 01:30:47;;;;;;;24.87;7.75;;;;;;;4.17;75.42;98611.63;120050;1150;22920;-62
2021/01/22 01:33:17;;;;;;;25.82;7.25;;;;;;;4.16;75.30;98604.60;120231;1150;22938;-62
2021/01/22 01:35:51;;;;;;;22.67;6.60;;;;;;;4.17;75.05;98601.36;120048;1150;22942;-63
2021/01/22 01:38:21;;;;;;;23.37;7.57;;;;;;;4.16;75.62;98599.81;120172;1150;24509;-62
2021/01/22 01:40:51;;;;;;;22.48;6.03;;;;;;;4.17;75.62;98603.34;120273;1150;23051;-62
2021/01/22 01:43:21;;;;;;;27.13;6.45;;;;;;;4.20;75.54;98605.17;120028;1150;27311;-62
2021/01/22 01:45:51;;;;;;;21.57;5.45;;;;;;;4.20;75.61;98589.34;120073;1150;24703;-62
2021/01/22 01:48:22;;;;;;;19.10;5.37;;;;;;;4.23;75.58;98598.69;120110;1150;26091;-62
2021/01/22 01:50:52;;;;;;;20.70;5.80;;;;;;;4.23;75.66;98591.16;120179;1150;23018;-62
2021/01/22 01:53:24;;;;;;;20.37;6.10;;;;;;;4.25;75.34;98593.44;120386;1149;23062;-61
2021/01/22 01:55:54;;;;;;;21.00;5.53;;;;;;;4.27;75.58;98588.20;120282;1150;26021;-61
2021/01/22 01:58:25;;;;;;;23.50;5.20;;;;;;;4.28;75.53;98582.23;120051;1150;26047;-61
2021/01/22 02:00:57;;;;;;;20.47;6.30;;;;;;;4.30;75.69;98581.74;120252;1150;22941;-62
2021/01/22 02:03:27;;;;;;;23.20;5.47;;;;;;;4.31;75.50;98578.49;120012;1150;26686;-62
2021/01/22 02:05:57;;;;;;;23.05;5.97;;;;;;;4.29;75.74;98580.97;120195;1150;22914;-64
2021/01/22 02:08:27;;;;;;;22.70;6.90;;;;;;;4.28;75.84;98573.17;119986;1150;26098;-62
2021/01/22 02:11:00;;;;;;;18.75;5.70;;;;;;;4.26;75.92;98572.89;120165;1150;22915;-62
2021/01/22 02:13:32;;;;;;;23.83;6.43;;;;;;;4.26;75.61;98570.89;120066;1149;28475;-61
2021/01/22 02:16:03;;;;;;;23.17;6.63;;;;;;;4.27;76.11;98572.41;120187;1150;22951;-61
2021/01/22 02:18:34;;;;;;;23.77;6.80;;;;;;;4.27;76.01;98572.41;120234;1149;27821;-63
2021/01/22 02:21:15;;;;;;;20.80;6.10;;;;;;;4.24;75.72;98561.55;120087;1151;22945;-62
2021/01/22 02:23:47;;;;;;;22.03;7.20;;;;;;;4.22;76.03;98570.30;120293;1150;24654;-62
2021/01/22 02:26:38;;;;;;;20.37;6.53;;;;;;;4.21;75.98;98565.25;120279;1149;26159;-62
2021/01/22 02:29:09;;;;;;;23.05;7.55;;;;;;;4.20;76.03;98558.96;120074;1150;22979;-62
2021/01/22 02:31:44;;;;;;;19.27;6.77;;;;;;;4.20;76.22;98556.20;120224;1149;22990;-62
2021/01/22 02:34:20;;;;;;;18.83;6.53;;;;;;;4.21;76.19;98548.68;120134;1149;26678;-62
2021/01/22 02:36:55;;;;;;;22.67;6.77;;;;;;;4.18;75.99;98531.06;120175;1150;24555;-61
2021/01/22 02:39:29;;;;;;;17.43;6.53;;;;;;;4.16;76.06;98518.98;120035;1151;24567;-62
2021/01/22 02:42:00;;;;;;;18.37;5.90;;;;;;;4.13;76.27;98506.89;120039;1151;22922;-62
2021/01/22 02:44:32;;;;;;;20.27;6.67;;;;;;;4.12;76.46;98493.56;119986;1151;23061;-62
2021/01/22 02:47:05;;;;;;;24.93;5.90;;;;;;;4.09;76.56;98498.03;119979;1150;22984;-62
2021/01/22 02:49:35;;;;;;;15.23;5.47;;;;;;;4.06;76.58;98491.46;120173;1150;22979;-63
2021/01/22 02:52:06;;;;;;;19.40;7.97;;;;;;;4.05;76.65;98489.19;120258;1150;23030;-61
2021/01/22 02:54:36;;;;;;;29.50;16.75;;;;;;;4.02;76.97;98496.41;120159;1150;26056;-62
2021/01/22 02:57:17;;;;;;;32.30;17.33;;;;;;;4.04;76.94;98493.94;120091;1150;22932;-62
2021/01/22 02:59:55;;;;;;;26.67;11.90;;;;;;;4.03;76.91;98503.45;120274;1150;22958;-62
2021/01/22 03:02:32;;;;;;;25.60;10.60;;;;;;;4.04;77.04;98502.22;120410;1150;23363;-63
2021/01/22 03:05:04;;;;;;;22.17;11.10;;;;;;;4.06;76.93;98488.70;120234;1150;23001;-62
2021/01/22 03:07:40;;;;;;;20.17;10.03;;;;;;;4.08;76.69;98488.98;120592;1149;22945;-63
2021/01/22 03:10:12;;;;;;;23.43;10.40;;;;;;;4.09;76.94;98485.00;120053;1150;23024;-62
2021/01/22 03:12:45;;;;;;;17.90;7.05;;;;;;;4.08;76.96;98488.98;120266;1150;22957;-62
2021/01/22 03:15:17;;;;;;;18.90;7.13;;;;;;;4.08;76.87;98488.98;120237;1150;22936;-62
2021/01/22 03:17:47;;;;;;;19.30;7.13;;;;;;;4.09;76.99;98489.75;120296;1149;25444;-62
2021/01/22 03:20:21;;;;;;;20.75;7.60;;;;;;;4.09;76.70;98492.52;120046;1150;22948;-62
2021/01/22 03:22:51;;;;;;;17.27;5.23;;;;;;;4.12;76.96;98510.13;120260;1149;25979;-62
2021/01/22 03:25:21;;;;;;;17.82;3.90;;;;;;;4.06;77.02;98521.06;120032;1150;24723;-62
2021/01/22 03:27:51;;;;;;;15.70;3.40;;;;;;;3.97;76.72;98526.70;120091;1150;23272;-63
2021/01/22 03:30:24;;;;;;;20.50;3.77;;;;;;;3.92;76.84;98519.84;120223;1148;25081;-62
2021/01/22 03:32:54;;;;;;;12.57;3.90;;;;;;;3.85;76.99;98524.95;120363;1149;22949;-61
2021/01/22 03:35:23;;;;;;;12.33;3.33;;;;;;;3.75;76.78;98520.77;120104;1151;22937;-62
2021/01/22 03:37:54;;;;;;;18.80;3.60;;;;;;;3.72;77.02;98518.97;120516;1149;22958;-61
2021/01/22 03:40:24;;;;;;;15.15;3.52;;;;;;;3.69;76.92;98515.16;120169;1150;24493;-62
2021/01/22 03:42:56;;;;;;;16.50;4.70;;;;;;;3.68;77.32;98516.41;120273;1150;22944;-62
2021/01/22 03:45:26;;;;;;;15.15;4.00;;;;;;;3.64;77.30;98518.56;120138;1151;22958;-62
2021/01/22 03:47:56;;;;;;;15.23;3.90;;;;;;;3.64;77.28;98526.84;120206;1151;22916;-62
2021/01/22 03:50:26;;;;;;;12.63;4.00;;;;;;;3.66;77.41;98507.07;120163;1150;27844;-61
2021/01/22 03:52:55;;;;;;;14.03;4.50;;;;;;;3.66;77.25;98518.84;120166;1150;22934;-63
2021/01/22 03:55:25;;;;;;;17.20;5.08;;;;;;;3.69;77.41;98515.16;120229;1151;22972;-62
2021/01/22 03:57:56;;;;;;;16.87;5.50;;;;;;;3.70;77.50;98505.66;120190;1151;22930;-62
2021/01/22 04:00:24;;;;;;;17.00;5.58;;;;;;;;;;120184;1149;30957;-63
2021/01/22 04:02:54;;;;;;;17.00;6.20;;;;;;;3.70;77.44;98496.61;120212;1150;26670;-62
2021/01/22 04:05:25;;;;;;;16.93;6.08;;;;;;;3.70;77.46;98491.09;120118;1150;23170;-62
2021/01/22 04:07:55;;;;;;;18.90;5.33;;;;;;;3.67;77.35;98492.79;120257;1150;22945;-62
2021/01/22 04:10:25;;;;;;;17.43;5.17;;;;;;;3.67;77.66;98495.55;120149;1150;26389;-62
2021/01/22 04:12:55;;;;;;;15.08;4.97;;;;;;;3.67;77.63;98512.11;120114;1151;22966;-62
2021/01/22 04:15:25;;;;;;;17.65;4.55;;;;;;;3.67;77.64;98508.58;120131;1150;22929;-62
2021/01/22 04:17:55;;;;;;;16.23;4.17;;;;;;;3.69;77.66;98492.30;120267;1149;22973;-61
2021/01/22 04:20:26;;;;;;;14.05;3.77;;;;;;;3.69;77.99;98492.30;120313;1151;23071;-62
2021/01/22 04:22:55;;;;;;;;;;;;;;;3.67;77.64;98487.27;120309;1151;22920;-62
2021/01/22 04:25:25;;;;;;;19.03;6.07;;;;;;;3.67;77.57;98489.27;120127;1150;24776;-63
2021/01/22 04:27:55;;;;;;;26.70;8.33;;;;;;;3.68;77.80;98482.52;120180;1150;23084;-62
2021/01/22 04:30:25;;;;;;;62.85;19.15;;;;;;;3.69;77.79;98475.75;120160;1151;23047;-62
2021/01/22 04:32:57;;;;;;;73.62;23.67;;;;;;;3.71;78.04;98459.48;120454;1149;24596;-62
2021/01/22 04:35:28;;;;;;;58.20;17.55;;;;;;;3.70;78.06;98455.98;120138;1151;23014;-62
2021/01/22 04:37:58;;;;;;;62.30;18.87;;;;;;;3.69;78.15;98462.72;120372;1151;22924;-62
2021/01/22 04:40:29;;;;;;;57.58;17.57;;;;;;;3.70;78.12;98469.01;120311;1149;28079;-62
2021/01/22 04:42:59;;;;;;;49.15;13.40;;;;;;;3.71;78.32;98471.28;120226;1150;22916;-62
2021/01/22 04:45:29;;;;;;;36.28;9.05;;;;;;;3.72;78.18;98463.77;120426;1151;22950;-63
2021/01/22 04:48:00;;;;;;;28.80;9.70;;;;;;;3.73;78.31;98454.24;120326;1149;22920;-61
2021/01/22 04:50:31;;;;;;;33.80;10.47;;;;;;;3.75;78.34;98443.48;120349;1149;26388;-62
2021/01/22 04:53:06;;;;;;;40.77;13.00;;;;;;;3.75;78.66;98430.45;120312;1151;23084;-63
2021/01/22 04:55:41;;;;;;;36.40;9.60;;;;;;;3.76;78.59;98429.23;120172;1151;22957;-61
2021/01/22 04:58:12;;;;;;;33.10;10.03;;;;;;;3.76;78.79;98436.74;120174;1150;23160;-62
2021/01/22 05:00:45;;;;;;;30.43;9.67;;;;;;;3.76;78.48;98445.80;120251;1150;23142;-61
2021/01/22 05:03:15;;;;;;;31.53;8.73;;;;;;;3.78;78.69;98446.08;120011;1150;26659;-62
2021/01/22 05:05:45;;;;;;;33.93;9.37;;;;;;;3.79;78.66;98425.50;120083;1150;26072;-63
2021/01/22 05:08:16;;;;;;;34.60;10.33;;;;;;;3.81;78.90;98427.78;120124;1149;27435;-62
2021/01/22 05:10:45;;;;;;;34.58;9.10;;;;;;;3.82;78.72;98416.28;120074;1151;23010;-62
2021/01/22 05:13:16;;;;;;;46.50;16.60;;;;;;;3.85;78.77;98412.55;120036;1151;22996;-61
2021/01/22 05:16:09;;;;;;;55.20;17.23;;;;;;;3.84;78.85;98422.09;120261;1149;22897;-62
2021/01/22 05:18:39;;;;;;;41.75;14.55;;;;;;;3.83;79.00;98417.79;120148;1150;27407;-62
2021/01/22 05:21:11;;;;;;;46.65;13.22;;;;;;;3.83;78.94;98419.78;120197;1150;23098;-63
2021/01/22 05:23:42;;;;;;;33.60;11.30;;;;;;;3.84;78.79;98424.84;120123;1150;22936;-62
2021/01/22 05:26:16;;;;;;;48.87;11.45;;;;;;;3.84;78.76;98411.05;120156;1150;22923;-62
2021/01/22 05:28:49;;;;;;;33.25;9.90;;;;;;;3.85;78.82;98406.27;120190;1150;22934;-62
2021/01/22 05:31:20;;;;;;;27.93;7.73;;;;;;;3.85;79.10;98414.55;120249;1150;22941;-61
2021/01/22 05:33:57;;;;;;;30.67;8.00;;;;;;;3.86;78.98;98419.61;120102;1150;22916;-62
2021/01/22 05:36:29;;;;;;;26.60;7.33;;;;;;;3.86;79.05;98416.84;120320;1149;22930;-61
2021/01/22 05:39:01;;;;;;;22.50;8.15;;;;;;;3.86;79.14;98400.28;120136;1150;22996;-61
2021/01/22 05:41:31;;;;;;;23.97;6.43;;;;;;;3.86;79.00;98403.05;120094;1150;22938;-61
2021/01/22 05:44:05;;;;;;;24.90;8.20;;;;;;;3.86;79.46;98399.52;120181;1150;26353;-61
2021/01/22 05:46:35;;;;;;;20.40;6.50;;;;;;;3.86;79.21;98405.04;120225;1149;22930;-62
2021/01/22 05:49:09;;;;;;;20.93;5.97;;;;;;;3.87;79.24;98396.27;120085;1149;27107;-62
2021/01/22 05:51:40;;;;;;;24.50;6.00;;;;;;;3.90;79.34;98389.04;120495;1149;28376;-62
2021/01/22 05:54:27;;;;;;;26.13;6.67;;;;;;;3.92;79.63;98389.33;120224;1150;23087;-62
2021/01/22 05:56:58;;;;;;;23.63;6.77;;;;;;;3.94;79.53;98390.38;120064;1150;25973;-62
2021/01/22 05:59:28;;;;;;;24.57;7.03;;;;;;;3.96;79.54;98398.94;120320;1150;23005;-62
2021/01/22 06:01:58;;;;;;;23.90;6.30;;;;;;;3.98;79.66;98396.45;120259;1150;23093;-62
2021/01/22 06:04:28;;;;;;;25.70;7.03;;;;;;;4.00;79.43;98401.49;120092;1150;23084;-63
2021/01/22 06:06:58;;;;;;;35.83;9.78;;;;;;;3.99;79.41;98406.24;120010;1150;22968;-61
2021/01/22 06:09:36;;;;;;;22.20;6.97;;;;;;;4.02;79.15;98401.77;120250;1149;28413;-62
2021/01/22 06:12:09;;;;;;;32.45;11.20;;;;;;;4.03;79.37;98401.28;120212;1149;22950;-62
2021/01/22 06:14:40;;;;;;;42.20;12.43;;;;;;;4.04;79.49;98404.81;120548;1150;22859;-62
2021/01/22 06:17:11;;;;;;;37.30;13.70;;;;;;;4.04;79.51;98394.53;120417;1150;22964;-62
2021/01/22 06:19:43;;;;;;;39.48;13.93;;;;;;;4.06;79.74;98408.63;120324;1150;23216;-61
2021/01/22 06:22:22;;;;;;;30.73;11.27;;;;;;;4.06;79.30;98400.34;120020;1151;22872;-62
2021/01/22 06:24:52;;;;;;;28.83;11.10;;;;;;;4.06;79.53;98402.33;120118;1151;27327;-61
2021/01/22 06:27:23;;;;;;;29.23;10.65;;;;;;;4.06;79.51;98402.33;120372;1149;22957;-62
2021/01/22 06:29:55;;;;;;;28.20;8.63;;;;;;;4.06;79.67;98399.57;119866;1150;22954;-63
2021/01/22 06:32:28;;;;;;;25.53;9.00;;;;;;;4.07;79.76;98396.35;119944;1150;27767;-64
2021/01/22 06:35:00;;;;;;;26.10;8.83;;;;;;;4.08;79.75;98405.38;120161;1149;22965;-65
2021/01/22 06:37:31;;;;;;;20.83;6.40;;;;;;;4.08;79.89;98413.66;120143;1150;27810;-64
2021/01/22 06:40:04;;;;;;;19.70;5.07;;;;;;;4.12;80.04;98430.05;120265;1149;23041;-62
2021/01/22 06:42:38;;;;;;;18.20;4.97;;;;;;;4.14;79.74;98425.55;120040;1150;24500;-63
2021/01/22 06:45:09;;;;;;;18.10;5.40;;;;;;;4.19;79.89;98430.41;120246;1150;22932;-63
2021/01/22 06:47:40;;;;;;;20.00;4.67;;;;;;;4.23;79.92;98427.44;120251;1149;23334;-60
2021/01/22 06:53:14;;;;;;;19.63;4.60;;;;;;;4.29;79.90;98425.52;120352;1147;22893;-61
2021/01/22 06:56:08;;;;;;;22.40;5.03;;;;;;;4.32;79.73;98416.28;120776;1148;24565;-62
2021/01/22 06:58:37;;;;;;;21.07;7.37;;;;;;;4.34;79.65;98424.84;120809;1148;22948;-61
2021/01/22 07:01:34;;;;;;;27.33;8.17;;;;;;;4.37;79.78;98415.58;120396;1149;27686;-61
2021/01/22 07:04:03;;;;;;;25.67;11.63;;;;;;;4.39;79.72;98424.92;120371;1150;22880;-62
2021/01/22 07:06:52;;;;;;;28.30;9.78;;;;;;;4.41;79.94;98416.14;120755;1149;22921;-61
2021/01/22 07:09:23;;;;;;;20.73;7.10;;;;;;;4.44;79.72;98407.67;120402;1151;22924;-62
2021/01/22 07:11:52;;;;;;;;;;;;;;;4.46;79.66;98394.13;120555;1149;22944;-61
2021/01/22 07:14:40;;;;;;;23.67;8.63;;;;;;;4.48;79.92;98383.36;120806;1149;24236;-62
2021/01/22 07:17:17;;;;;;;40.77;14.07;;;;;;;4.51;79.65;98390.66;120897;1149;22920;-61
2021/01/22 07:19:53;;;;;;;39.25;14.40;;;;;;;4.55;79.66;98391.22;120382;1150;22934;-62
2021/01/22 07:22:22;;;;;;;34.60;11.00;;;;;;;4.57;79.67;98380.44;120292;1149;23084;-61
2021/01/22 07:24:54;;;;;;;36.80;13.73;;;;;;;4.59;79.74;98377.22;120105;1150;22995;-62
2021/01/22 07:27:24;;;;;;;41.80;14.17;;;;;;;4.62;79.60;98398.34;121167;1148;22917;-62
2021/01/22 07:30:14;;;;;;;36.60;12.80;;;;;;;4.64;79.53;98426.26;120111;1150;23019;-61
2021/01/22 07:32:45;;;;;;;36.55;11.35;;;;;;;4.69;79.66;98425.58;120327;1149;22907;-62
2021/01/22 07:35:21;;;;;;;37.90;11.77;;;;;;;4.73;79.58;98417.84;120208;1150;22952;-62
2021/01/22 07:37:51;;;;;;;37.83;15.10;;;;;;;4.73;79.71;98413.08;121209;1149;23009;-63
2021/01/22 07:40:22;;;;;;;39.38;14.30;;;;;;;4.75;79.73;98415.36;120229;1150;22952;-62
2021/01/22 07:42:51;;;;;;;41.33;15.08;;;;;;;4.75;79.55;98418.13;120085;1148;23047;-63
2021/01/22 07:45:21;;;;;;;36.80;14.10;;;;;;;4.78;79.64;98417.14;120137;1150;23226;-62
2021/01/22 07:47:50;;;;;;;35.25;12.35;;;;;;;4.80;79.47;98411.91;122917;1149;22989;-63
2021/01/22 07:50:20;;;;;;;30.63;11.23;;;;;;;4.83;79.39;98410.93;120674;1150;26015;-62
2021/01/22 07:52:50;;;;;;;30.30;11.43;;;;;;;4.84;79.61;98415.23;120131;1149;22920;-61
2021/01/22 07:55:20;;;;;;;26.75;10.05;;;;;;;4.87;79.53;98419.77;120410;1149;22908;-62
2021/01/22 07:58:04;;;;;;;24.50;8.87;;;;;;;4.89;79.79;98422.81;120177;1149;22920;-63
2021/01/22 08:00:39;;;;;;;26.70;9.40;;;;;;;4.92;79.54;98422.59;120022;1149;22999;-62
2021/01/22 08:03:11;;;;;;;31.33;11.80;;;;;;;4.93;79.53;98418.60;120368;1149;22941;-63
2021/01/22 08:05:41;;;;;;;31.90;11.37;;;;;;;4.97;79.43;98421.15;120255;1150;25628;-63
2021/01/22 08:08:23;;;;;;;28.93;10.77;;;;;;;4.99;78.85;98413.13;121507;1149;22913;-63
2021/01/22 08:10:53;;;;;;;31.13;11.80;;;;;;;5.01;79.37;98393.30;121030;1150;22917;-63
2021/01/22 08:13:22;;;;;;;44.13;18.90;;;;;;;5.01;79.50;98396.81;120424;1150;23440;-62
2021/01/22 08:16:05;;;;;;;31.03;11.87;;;;;;;5.02;79.47;98389.28;120439;1150;23535;-62
2021/01/22 08:18:35;;;;;;;23.37;8.07;;;;;;;5.02;79.34;98375.45;120153;1149;23080;-62
2021/01/22 08:21:05;;;;;;;28.65;8.65;;;;;;;5.01;79.19;98374.69;120379;1150;26469;-63
2021/01/22 08:23:34;;;;;;;34.10;10.53;;;;;;;5.02;79.35;98378.22;120207;1150;22913;-62
2021/01/22 08:26:04;;;;;;;24.37;8.88;;;;;;;5.02;79.47;98373.45;120617;1149;24538;-63
2021/01/22 08:28:34;;;;;;;24.17;9.13;;;;;;;5.02;79.54;98380.98;120662;1149;22899;-63
2021/01/22 08:31:04;;;;;;;24.98;9.03;;;;;;;5.02;79.55;98375.45;120633;1150;24561;-63
2021/01/22 08:33:34;;;;;;;26.80;9.18;;;;;;;5.02;79.43;98387.28;120764;1149;22920;-63
2021/01/22 08:36:05;;;;;;;33.67;10.93;;;;;;;5.03;79.35;98386.02;120590;1149;24594;-63
2021/01/22 08:38:35;;;;;;;28.83;9.80;;;;;;;5.04;79.65;98379.26;119914;1149;23080;-63
2021/01/22 08:41:05;;;;;;;29.93;10.40;;;;;;;5.04;79.57;98373.73;119883;1150;22972;-62
2021/01/22 08:43:49;;;;;;;27.98;9.43;;;;;;;5.06;79.40;98387.06;123488;1149;22930;-63
2021/01/22 08:46:20;;;;;;;35.00;11.30;;;;;;;5.08;79.45;98384.56;120312;1149;22931;-62
2021/01/22 08:48:49;;;;;;;26.37;10.37;;;;;;;5.11;79.39;98391.91;122738;1149;22962;-62
2021/01/22 08:51:29;;;;;;;26.53;9.70;;;;;;;5.11;79.46;98384.34;120151;1150;22973;-62
2021/01/22 08:53:59;;;;;;;28.17;9.13;;;;;;;5.13;79.47;98387.38;119912;1148;22864;-63
2021/01/22 08:56:28;;;;;;;30.05;9.58;;;;;;;5.15;79.57;98390.45;119894;1150;22931;-62
2021/01/22 08:59:06;;;;;;;27.27;8.70;;;;;;;5.18;79.59;98394.23;120146;1148;23018;-61
2021/01/22 09:01:53;;;;;;;24.67;8.63;;;;;;;5.20;79.35;98394.50;120492;1150;22965;-63
2021/01/22 09:04:25;;;;;;;25.87;9.17;;;;;;;5.22;79.66;98390.00;120048;1148;22897;-63
2021/01/22 09:06:56;;;;;;;24.00;9.10;;;;;;;5.26;79.62;98382.25;120783;1148;22993;-63
2021/01/22 09:09:39;;;;;;;26.03;8.30;;;;;;;5.31;79.46;98378.02;120444;1148;22973;-62
2021/01/22 09:12:14;;;;;;;23.65;7.70;;;;;;;5.35;79.51;98376.56;120522;1148;22931;-63
2021/01/22 09:14:59;;;;;;;28.27;9.20;;;;;;;5.41;79.66;98382.14;121365;1148;22973;-62
2021/01/22 09:17:46;;;;;;;26.55;8.35;;;;;;;5.47;79.38;98380.95;120234;1148;23051;-61
2021/01/22 09:20:17;;;;;;;19.80;6.77;;;;;;;5.53;79.18;98380.98;120291;1149;24524;-62
2021/01/22 09:22:49;;;;;;;20.33;6.47;;;;;;;5.60;78.77;98373.02;120271;1151;23012;-62
2021/01/22 09:25:19;;;;;;;25.93;7.97;;;;;;;5.67;79.30;98377.33;119922;1150;22945;-62
2021/01/22 09:27:50;;;;;;;21.07;5.83;;;;;;;5.74;79.13;98382.44;120125;1149;23163;-62
2021/01/22 09:30:21;;;;;;;;;;;;;;;5.79;79.00;98384.50;120230;1148;27183;-64
2021/01/22 09:32:53;;;;;;;19.60;6.70;;;;;;;5.84;78.85;98396.88;121442;1148;21612;-64
2021/01/22 09:35:24;;;;;;;24.37;7.03;;;;;;;5.88;78.76;98403.72;121080;1148;24494;-63
2021/01/22 09:37:54;;;;;;;22.33;7.70;;;;;;;5.97;79.08;98416.64;120903;1148;22911;-62
2021/01/22 09:40:24;;;;;;;23.45;8.10;;;;;;;6.02;78.91;98411.12;120454;1148;22920;-62
2021/01/22 09:42:54;;;;;;;24.98;9.08;;;;;;;6.08;78.81;98416.73;120341;1148;23081;-62
2021/01/22 09:45:23;;;;;;;22.43;7.60;;;;;;;6.14;78.87;98421.06;120864;1149;22942;-63
2021/01/22 09:47:54;;;;;;;24.55;7.90;;;;;;;6.21;78.87;98408.75;120114;1148;27399;-64
2021/01/22 09:50:23;;;;;;;22.87;7.95;;;;;;;6.27;78.97;98413.08;119875;1148;26079;-63
2021/01/22 09:52:52;;;;;;;21.73;7.30;;;;;;;6.35;78.38;98427.98;119932;1149;23073;-64
2021/01/22 09:55:22;;;;;;;17.93;5.00;;;;;;;6.44;78.36;98418.73;120666;1149;22917;-62
2021/01/22 09:57:51;;;;;;;19.00;5.90;;;;;;;6.51;78.27;98418.28;120065;1148;22920;-62
2021/01/22 10:00:23;;;;;;;17.55;5.10;;;;;;;6.58;78.33;98417.80;119984;1150;22947;-63
2021/01/22 10:02:52;;;;;;;17.57;4.17;;;;;;;6.66;77.85;98407.78;120114;1148;22973;-63
2021/01/22 10:05:22;;;;;;;17.30;4.13;;;;;;;6.72;77.55;98396.70;119917;1148;25401;-63
2021/01/22 10:07:51;;;;;;;17.40;3.90;;;;;;;6.77;77.56;98398.73;119919;1148;24596;-62
2021/01/22 10:10:20;;;;;;;19.13;4.27;;;;;;;6.82;77.58;98393.23;120672;1148;22882;-63
2021/01/22 10:12:50;;;;;;;22.55;5.15;;;;;;;6.88;77.37;98388.46;120387;1148;23157;-63
2021/01/22 10:15:20;;;;;;;20.20;5.00;;;;;;;6.93;77.20;98379.38;121162;1148;24554;-63
2021/01/22 10:17:49;;;;;;;18.17;5.23;;;;;;;6.98;77.18;98386.98;120237;1148;24641;-63
2021/01/22 10:20:19;;;;;;;14.77;4.17;;;;;;;7.02;77.24;98379.17;119893;1148;25079;-64
2021/01/22 10:22:49;;;;;;;22.02;4.42;;;;;;;7.07;76.99;98374.91;121851;1148;26481;-64
2021/01/22 10:25:18;;;;;;;;;;;;;;;7.10;76.68;98380.20;120141;1148;23051;-61
2021/01/22 10:27:50;;;;;;;15.20;3.47;;;;;;;7.14;77.08;98377.94;119846;1148;26609;-61
2021/01/22 10:30:23;;;;;;;19.55;4.95;;;;;;;7.17;76.88;98384.52;120079;1148;22917;-63
2021/01/22 10:32:54;;;;;;;14.93;3.70;;;;;;;7.19;77.01;98368.89;119959;1148;23052;-62
2021/01/22 10:35:26;;;;;;;22.20;3.87;;;;;;;7.24;76.59;98364.61;120880;1148;28874;-62
2021/01/22 10:37:56;;;;;;;16.30;3.47;;;;;;;7.28;76.69;98365.13;119762;1148;22972;-61
2021/01/22 10:40:28;;;;;;;14.27;4.37;;;;;;;7.32;76.86;98365.63;120360;1148;22952;-62
2021/01/22 10:42:59;;;;;;;12.57;3.83;;;;;;;7.37;76.82;98362.09;120342;1148;24751;-61
2021/01/22 10:45:28;;;;;;;15.23;3.10;;;;;;;7.40;76.65;98363.88;120965;1148;23049;-61
2021/01/22 10:47:58;;;;;;;13.87;3.57;;;;;;;7.45;76.64;98359.59;119670;1148;22952;-62
2021/01/22 10:50:27;;;;;;;15.23;3.47;;;;;;;7.49;76.60;98352.52;119777;1150;22948;-61
2021/01/22 10:52:57;;;;;;;13.95;3.27;;;;;;;7.54;76.05;98356.56;119826;1149;22984;-61
2021/01/22 10:55:26;;;;;;;12.65;3.10;;;;;;;7.59;76.07;98353.05;119762;1150;27742;-61
2021/01/22 10:57:57;;;;;;;15.63;4.13;;;;;;;7.63;76.63;98359.87;119921;1148;23090;-61
2021/01/22 11:00:39;;;;;;;14.57;3.43;;;;;;;7.67;75.66;98359.61;119747;1149;22907;-61
2021/01/22 11:03:13;;;;;;;15.10;3.40;;;;;;;7.72;75.59;98361.61;121166;1148;23116;-61
2021/01/22 11:05:42;;;;;;;10.00;2.40;;;;;;;7.75;75.51;98349.50;120484;1148;23018;-62
2021/01/22 11:08:12;;;;;;;10.95;2.77;;;;;;;7.81;75.68;98358.59;120139;1148;22888;-62
2021/01/22 11:10:43;;;;;;;10.70;2.75;;;;;;;7.90;76.03;98355.56;119950;1150;23081;-61
2021/01/22 11:13:14;;;;;;;10.90;2.50;;;;;;;7.99;75.89;98353.28;119894;1150;26651;-60
2021/01/22 11:15:45;;;;;;;11.50;2.53;;;;;;;8.11;76.19;98348.48;120331;1149;22952;-61
2021/01/22 11:18:15;;;;;;;16.42;3.10;;;;;;;8.26;75.48;98342.64;120025;1149;23032;-61
2021/01/22 11:20:46;;;;;;;11.60;2.50;;;;;;;8.33;75.36;98337.33;120074;1151;24477;-61
2021/01/22 11:23:15;;;;;;;12.63;3.15;;;;;;;8.39;75.32;98337.31;119972;1150;22941;-62
2021/01/22 11:25:44;;;;;;;12.97;2.73;;;;;;;8.45;75.27;98338.81;120131;1150;22877;-62
2021/01/22 11:28:13;;;;;;;13.23;2.97;;;;;;;8.51;75.60;98330.44;119899;1148;22948;-61
2021/01/22 11:30:44;;;;;;;12.90;2.70;;;;;;;8.57;75.26;98323.59;119760;1148;22966;-62
2021/01/22 11:33:14;;;;;;;15.60;2.70;;;;;;;8.61;74.80;98323.31;120206;1148;23356;-61
2021/01/22 11:35:43;;;;;;;10.27;1.87;;;;;;;8.65;74.38;98323.84;122119;1148;24549;-62
2021/01/22 11:38:13;;;;;;;12.18;2.40;;;;;;;8.72;74.48;98324.05;119619;1149;22916;-62
2021/01/22 11:40:42;;;;;;;11.83;2.90;;;;;;;8.78;73.98;98324.78;121627;1148;22949;-62
2021/01/22 11:43:12;;;;;;;13.13;2.63;;;;;;;8.83;74.33;98312.88;120884;1148;22942;-62
2021/01/22 11:45:42;;;;;;;10.58;2.40;;;;;;;8.88;74.15;98308.53;120017;1148;23109;-62
2021/01/22 11:48:13;;;;;;;16.10;4.05;;;;;;;8.94;74.85;98306.47;122385;1148;22908;-63
2021/01/22 11:50:43;;;;;;;18.10;4.90;;;;;;;8.97;74.14;98308.23;120436;1148;23002;-63